createdAt,value
2023-03-02T00:00:29.316Z,26.93
2023-03-02T00:02:42.328Z,33.03
2023-03-02T00:04:45.122Z,30.23
2023-03-02T00:06:40.333Z,32.07
2023-03-02T00:08:39.106Z,27.67
2023-03-02T00:10:34.682Z,32.23
2023-03-02T00:12:31.058Z,29.27
2023-03-02T00:14:26.801Z,29.40
2023-03-02T00:16:21.902Z,32.93
2023-03-02T00:18:16.920Z,32.03
2023-03-02T00:20:14.079Z,28.43
2023-03-02T00:22:11.004Z,28.50
2023-03-02T00:24:09.914Z,33.50
2023-03-02T00:26:04.858Z,29.13
2023-03-02T00:28:00.197Z,31.87
2023-03-02T00:29:52.632Z,32.83
2023-03-02T00:31:48.057Z,29.23
2023-03-02T00:33:43.122Z,28.63
2023-03-02T00:35:42.537Z,29.07
2023-03-02T00:37:38.859Z,27.20
2023-03-02T00:39:36.916Z,30.80
2023-03-02T00:41:31.878Z,31.60
2023-03-02T00:43:28.083Z,28.70
2023-03-02T00:45:23.111Z,29.00
2023-03-02T00:47:18.474Z,28.70
2023-03-02T00:49:13.660Z,30.00
2023-03-02T00:51:09.932Z,28.97
2023-03-02T00:53:04.937Z,27.50
2023-03-02T00:55:03.021Z,31.63
2023-03-02T00:56:58.048Z,29.50
2023-03-02T00:59:00.874Z,29.07
2023-03-02T01:00:56.264Z,30.73
2023-03-02T01:02:52.060Z,26.63
2023-03-02T01:04:48.245Z,30.93
2023-03-02T01:06:47.214Z,30.87
2023-03-02T01:08:42.182Z,36.03
2023-03-02T01:10:40.356Z,29.47
2023-03-02T01:12:33.059Z,28.10
2023-03-02T01:14:29.225Z,34.87
2023-03-02T01:16:24.286Z,29.63
2023-03-02T01:18:19.695Z,30.93
2023-03-02T01:20:16.282Z,25.80
2023-03-02T01:22:12.219Z,25.33
2023-03-02T01:24:08.296Z,24.57
2023-03-02T01:26:06.388Z,25.57
2023-03-02T01:28:01.425Z,27.90
2023-03-02T01:29:59.258Z,27.40
2023-03-02T01:31:54.484Z,25.97
2023-03-02T01:33:49.651Z,24.30
2023-03-02T01:35:47.753Z,26.10
2023-03-02T01:37:42.745Z,31.87
2023-03-02T01:39:38.082Z,27.27
2023-03-02T01:41:35.753Z,26.97
2023-03-02T01:43:32.848Z,27.20
2023-03-02T01:45:55.813Z,31.73
2023-03-02T01:47:51.183Z,28.23
2023-03-02T01:49:49.721Z,21.90
2023-03-02T01:51:48.571Z,26.23
2023-03-02T01:53:46.840Z,26.37
2023-03-02T01:55:44.159Z,23.13
2023-03-02T01:57:47.484Z,25.57
2023-03-02T01:59:43.460Z,32.63
2023-03-02T02:01:42.478Z,27.37
2023-03-02T02:03:37.756Z,24.67
2023-03-02T02:05:33.125Z,24.77
2023-03-02T02:07:28.173Z,21.77
2023-03-02T02:09:23.886Z,24.43
2023-03-02T02:11:19.475Z,22.90
2023-03-02T02:13:18.367Z,27.10
2023-03-02T02:15:14.160Z,26.70
2023-03-02T02:17:33.466Z,28.00
2023-03-02T02:19:55.935Z,22.43
2023-03-02T02:21:50.956Z,24.30
2023-03-02T02:24:06.612Z,25.03
2023-03-02T02:26:10.619Z,24.00
2023-03-02T02:28:09.437Z,21.07
2023-03-02T02:30:11.029Z,21.60
2023-03-02T02:32:13.966Z,22.37
2023-03-02T02:34:16.757Z,25.00
2023-03-02T02:36:18.431Z,25.37
2023-03-02T02:38:16.086Z,19.90
2023-03-02T02:40:20.020Z,28.23
2023-03-02T02:42:21.046Z,20.43
2023-03-02T02:44:18.968Z,20.53
2023-03-02T02:46:15.419Z,22.77
2023-03-02T02:48:18.230Z,22.00
2023-03-02T02:50:21.349Z,21.20
2023-03-02T02:52:20.632Z,19.30
2023-03-02T02:54:20.645Z,19.30
2023-03-02T02:56:18.119Z,23.53
2023-03-02T02:58:28.369Z,20.40
2023-03-02T03:00:25.454Z,22.50
2023-03-02T03:02:23.606Z,19.67
2023-03-02T03:04:23.960Z,21.20
2023-03-02T03:06:23.349Z,20.53
2023-03-02T03:08:57.047Z,20.20
2023-03-02T03:10:52.121Z,21.83
2023-03-02T03:12:48.826Z,21.07
2023-03-02T03:14:47.377Z,22.03
2023-03-02T03:16:47.961Z,20.53
2023-03-02T03:18:46.127Z,23.43
2023-03-02T03:20:41.405Z,19.57
2023-03-02T03:22:38.382Z,20.03
2023-03-02T03:24:35.690Z,18.70
2023-03-02T03:26:31.078Z,21.67
2023-03-02T03:28:27.804Z,25.57
2023-03-02T03:30:25.562Z,22.63
2023-03-02T03:32:22.057Z,19.83
2023-03-02T03:34:17.054Z,21.83
2023-03-02T03:36:12.294Z,21.30
2023-03-02T03:38:08.119Z,24.50
2023-03-02T03:40:05.937Z,23.97
2023-03-02T03:42:01.407Z,20.13
2023-03-02T03:43:56.799Z,24.80
2023-03-02T03:45:54.723Z,23.60
2023-03-02T03:47:49.636Z,25.53
2023-03-02T03:49:45.022Z,26.03
2023-03-02T03:51:40.131Z,23.67
2023-03-02T03:53:35.709Z,22.07
2023-03-02T03:55:31.177Z,27.77
2023-03-02T03:57:26.461Z,21.53
2023-03-02T03:59:23.536Z,22.20
2023-03-02T04:01:21.115Z,26.47
2023-03-02T04:03:17.458Z,24.37
2023-03-02T04:05:13.886Z,22.00
2023-03-02T04:07:09.309Z,23.53
2023-03-02T04:09:05.038Z,21.83
2023-03-02T04:11:00.145Z,24.23
2023-03-02T04:12:55.564Z,25.80
2023-03-02T04:14:50.618Z,26.57
2023-03-02T04:16:49.206Z,26.07
2023-03-02T04:18:44.266Z,22.63
2023-03-02T04:20:39.208Z,25.83
2023-03-02T04:22:34.501Z,26.03
2023-03-02T04:24:29.510Z,28.57
2023-03-02T04:26:26.256Z,26.87
2023-03-02T04:28:21.501Z,21.83
2023-03-02T04:30:17.798Z,24.37
2023-03-02T04:32:16.686Z,24.47
2023-03-02T04:34:12.067Z,22.00
2023-03-02T04:36:07.810Z,21.77
2023-03-02T04:38:02.905Z,22.17
2023-03-02T04:39:58.573Z,21.87
2023-03-02T04:41:54.081Z,20.23
2023-03-02T04:43:49.383Z,25.80
2023-03-02T04:45:44.485Z,27.37
2023-03-02T04:47:42.798Z,25.33
2023-03-02T04:49:37.797Z,27.23
2023-03-02T04:51:36.610Z,23.97
2023-03-02T04:53:31.693Z,25.97
2023-03-02T04:55:30.091Z,28.27
2023-03-02T04:57:25.195Z,25.80
2023-03-02T04:59:24.009Z,24.27
2023-03-02T05:01:20.707Z,25.60
2023-03-02T05:03:18.603Z,26.70
2023-03-02T05:05:19.538Z,24.33
2023-03-02T05:07:15.392Z,25.57
2023-03-02T05:09:10.754Z,26.73
2023-03-02T05:11:07.860Z,26.27
2023-03-02T05:13:05.900Z,24.60
2023-03-02T05:15:01.622Z,26.80
2023-03-02T05:16:57.273Z,35.57
2023-03-02T05:18:55.363Z,30.87
2023-03-02T05:20:50.453Z,28.10
2023-03-02T05:22:45.833Z,27.20
2023-03-02T05:24:40.808Z,31.63
2023-03-02T05:26:36.295Z,30.57
2023-03-02T05:28:31.452Z,33.53
2023-03-02T05:30:27.018Z,30.27
2023-03-02T05:32:22.081Z,33.77
2023-03-02T05:34:20.837Z,36.43
2023-03-02T05:36:18.779Z,33.17
2023-03-02T05:38:15.281Z,34.20
2023-03-02T05:40:13.319Z,38.63
2023-03-02T05:42:09.042Z,32.60
2023-03-02T05:44:04.561Z,36.87
2023-03-02T05:46:00.603Z,39.00
2023-03-02T05:47:56.169Z,36.17
2023-03-02T05:49:54.183Z,35.83
2023-03-02T05:51:49.112Z,37.83
2023-03-02T05:53:44.497Z,40.00
2023-03-02T05:55:39.583Z,40.57
2023-03-02T05:57:34.834Z,37.70
2023-03-02T05:59:29.911Z,32.07
2023-03-02T06:01:25.215Z,34.63
2023-03-02T06:03:21.225Z,36.93
2023-03-02T06:05:22.873Z,32.10
2023-03-02T06:07:20.518Z,38.97
2023-03-02T06:09:15.933Z,39.33
2023-03-02T06:11:11.752Z,36.80
2023-03-02T06:13:08.189Z,42.73
2023-03-02T06:15:15.740Z,34.80
2023-03-02T06:17:11.108Z,34.30
2023-03-02T06:19:06.397Z,41.90
2023-03-02T06:21:04.690Z,41.43
2023-03-02T06:22:59.701Z,36.40
2023-03-02T06:24:55.815Z,39.10
2023-03-02T06:26:50.780Z,41.83
2023-03-02T06:28:52.469Z,38.10
2023-03-02T06:30:48.852Z,36.10
2023-03-02T06:32:44.386Z,36.23
2023-03-02T06:34:39.381Z,41.77
2023-03-02T06:36:39.372Z,37.97
2023-03-02T06:38:34.298Z,39.47
2023-03-02T06:40:30.058Z,37.43
2023-03-02T06:42:25.012Z,41.87
2023-03-02T06:44:20.847Z,43.27
2023-03-02T06:46:16.179Z,39.87
2023-03-02T06:48:11.650Z,36.23
2023-03-02T06:50:07.528Z,42.17
2023-03-02T06:52:07.172Z,42.27
2023-03-02T06:54:02.188Z,38.00
2023-03-02T06:55:57.529Z,38.80
2023-03-02T06:57:53.277Z,39.93
2023-03-02T06:59:48.554Z,36.43
2023-03-02T07:01:43.672Z,43.53
2023-03-02T07:03:39.182Z,40.40
2023-03-02T07:05:35.881Z,37.53
2023-03-02T07:07:33.929Z,39.87
2023-03-02T07:09:30.892Z,39.97
2023-03-02T07:11:26.588Z,42.47
2023-03-02T07:13:21.629Z,40.00
2023-03-02T07:15:17.547Z,42.47
2023-03-02T07:17:15.875Z,39.33
2023-03-02T07:19:14.820Z,51.90
2023-03-02T07:21:09.856Z,41.20
2023-03-02T07:23:08.059Z,41.60
2023-03-02T07:25:03.040Z,39.53
2023-03-02T07:26:58.358Z,43.63
2023-03-02T07:28:53.302Z,41.13
2023-03-02T07:30:48.746Z,44.47
2023-03-02T07:32:43.810Z,48.60
2023-03-02T07:34:39.143Z,40.13
2023-03-02T07:36:34.184Z,41.37
2023-03-02T07:38:38.168Z,53.10
2023-03-02T07:40:33.982Z,51.60
2023-03-02T07:42:29.347Z,50.23
2023-03-02T07:44:24.316Z,46.37
2023-03-02T07:46:19.764Z,48.10
2023-03-02T07:48:14.779Z,47.67
2023-03-02T07:50:12.082Z,49.03
2023-03-02T07:52:08.000Z,51.23
2023-03-02T07:54:06.098Z,52.70
2023-03-02T07:56:02.315Z,49.83
2023-03-02T07:57:57.774Z,54.10
2023-03-02T07:59:52.870Z,50.77
2023-03-02T08:01:48.351Z,50.00
2023-03-02T08:03:43.341Z,49.27
2023-03-02T08:05:38.727Z,49.20
2023-03-02T08:07:34.075Z,53.97
2023-03-02T08:09:32.665Z,62.57
2023-03-02T08:11:31.165Z,67.97
2023-03-02T08:13:26.690Z,78.63
2023-03-02T08:15:21.752Z,82.80
2023-03-02T08:17:17.053Z,93.00
2023-03-02T08:19:12.052Z,99.37
2023-03-02T08:21:12.821Z,105.37
2023-03-02T08:23:07.754Z,100.60
2023-03-02T08:25:07.354Z,106.53
2023-03-02T08:27:11.472Z,97.70
2023-03-02T08:29:06.935Z,102.20
2023-03-02T08:31:02.695Z,97.23
2023-03-02T08:32:58.020Z,111.20
2023-03-02T08:34:55.233Z,103.87
2023-03-02T08:36:50.633Z,104.17
2023-03-02T08:38:46.117Z,103.77
2023-03-02T08:40:44.101Z,101.03
2023-03-02T08:42:39.061Z,95.50
2023-03-02T08:44:34.367Z,97.13
2023-03-02T08:46:29.305Z,96.33
2023-03-02T08:48:25.157Z,99.57
2023-03-02T08:50:20.126Z,106.03
2023-03-02T08:52:16.745Z,108.27
2023-03-02T08:54:12.877Z,101.97
2023-03-02T08:56:18.343Z,99.40
2023-03-02T08:58:13.312Z,98.87
2023-03-02T09:00:14.624Z,105.43
2023-03-02T09:02:10.079Z,85.00
2023-03-02T09:04:07.111Z,101.83
2023-03-02T09:06:02.117Z,92.03
2023-03-02T09:07:57.057Z,88.93
2023-03-02T09:09:52.490Z,86.10
2023-03-02T09:11:50.230Z,74.43
2023-03-02T09:13:45.919Z,80.23
2023-03-02T09:15:41.050Z,76.37
2023-03-02T09:17:36.635Z,77.90
2023-03-02T09:19:31.851Z,79.73
2023-03-02T09:21:27.663Z,83.30
2023-03-02T09:23:23.233Z,81.00
2023-03-02T09:25:19.152Z,78.53
2023-03-02T09:27:17.525Z,73.23
2023-03-02T09:29:13.392Z,74.20
2023-03-02T09:31:11.125Z,67.03
2023-03-02T09:33:06.172Z,69.23
2023-03-02T09:35:01.532Z,71.53
2023-03-02T09:36:56.527Z,69.13
2023-03-02T09:38:52.161Z,62.87
2023-03-02T09:41:03.982Z,72.20
2023-03-02T09:43:26.499Z,65.40
2023-03-02T09:45:34.692Z,62.20
2023-03-02T09:47:38.783Z,71.30
2023-03-02T09:49:48.275Z,75.77
2023-03-02T09:51:49.480Z,65.43
2023-03-02T09:53:49.783Z,53.03
2023-03-02T09:55:46.100Z,52.00
2023-03-02T09:57:42.582Z,56.83
2023-03-02T09:59:46.093Z,56.63
2023-03-02T10:01:45.285Z,62.63
2023-03-02T10:03:47.614Z,67.10
2023-03-02T10:05:45.173Z,69.73
2023-03-02T10:07:42.214Z,67.77
2023-03-02T10:09:37.221Z,60.53
2023-03-02T10:11:42.297Z,61.63
2023-03-02T10:13:47.566Z,59.47
2023-03-02T10:15:54.447Z,63.93
2023-03-02T10:17:59.729Z,57.57
2023-03-02T10:19:59.181Z,58.77
2023-03-02T10:22:01.565Z,59.77
2023-03-02T10:23:59.388Z,60.37
2023-03-02T10:26:01.146Z,57.97
2023-03-02T10:28:03.543Z,58.37
2023-03-02T10:30:03.888Z,47.77
2023-03-02T10:32:15.958Z,56.23
2023-03-02T10:34:13.654Z,52.10
2023-03-02T10:36:20.961Z,51.03
2023-03-02T10:38:18.576Z,53.43
2023-03-02T10:40:31.889Z,48.93
2023-03-02T10:42:31.595Z,51.43
2023-03-02T10:44:32.310Z,46.67
2023-03-02T10:46:27.383Z,49.67
2023-03-02T10:48:25.378Z,48.40
2023-03-02T10:50:25.658Z,48.47
2023-03-02T10:52:23.674Z,50.67
2023-03-02T10:54:19.185Z,50.27
2023-03-02T10:56:23.449Z,49.10
2023-03-02T10:58:28.628Z,46.27
2023-03-02T11:00:26.212Z,47.23
2023-03-02T11:02:23.962Z,42.40
2023-03-02T11:04:26.700Z,44.73
2023-03-02T11:06:23.774Z,44.90
2023-03-02T11:08:21.544Z,39.90
2023-03-02T11:10:22.058Z,36.23
2023-03-02T11:12:18.959Z,34.13
2023-03-02T11:14:18.682Z,36.07
2023-03-02T11:16:26.278Z,36.83
2023-03-02T11:18:28.263Z,38.20
2023-03-02T11:20:28.852Z,30.67
2023-03-02T11:22:35.658Z,26.43
2023-03-02T11:24:36.107Z,31.37
2023-03-02T11:26:37.048Z,31.63
2023-03-02T11:28:43.169Z,25.10
2023-03-02T11:30:48.549Z,27.27
2023-03-02T11:32:50.843Z,28.47
2023-03-02T11:34:49.541Z,29.27
2023-03-02T11:36:59.068Z,32.90
2023-03-02T11:38:57.639Z,31.83
2023-03-02T11:40:56.491Z,25.57
2023-03-02T11:42:52.372Z,25.93
2023-03-02T11:44:48.255Z,24.83
2023-03-02T11:46:47.065Z,22.00
2023-03-02T11:48:48.933Z,27.23
2023-03-02T11:50:58.127Z,21.37
2023-03-02T11:53:01.469Z,17.00
2023-03-02T11:55:01.206Z,18.43
2023-03-02T11:56:56.538Z,18.73
2023-03-02T11:59:04.724Z,21.37
2023-03-02T12:01:00.764Z,19.27
2023-03-02T12:03:05.694Z,19.03
2023-03-02T12:05:10.031Z,19.03
2023-03-02T12:10:33.672Z,21.33
2023-03-02T12:12:45.742Z,19.27
2023-03-02T12:14:43.340Z,19.93
2023-03-02T12:16:43.509Z,18.07
2023-03-02T12:18:48.913Z,19.17
2023-03-02T12:20:44.374Z,17.20
2023-03-02T12:22:41.337Z,18.10
2023-03-02T12:24:38.318Z,17.10
2023-03-02T12:26:39.743Z,20.95
2023-03-02T12:28:37.817Z,22.27
2023-03-02T12:30:32.900Z,21.23
2023-03-02T12:32:38.196Z,19.17
2023-03-02T12:34:39.594Z,17.00
2023-03-02T12:36:43.845Z,15.63
2023-03-02T12:38:39.857Z,13.65
2023-03-02T12:40:43.147Z,13.82
2023-03-02T12:42:51.931Z,15.38
2023-03-02T12:44:56.743Z,19.85
2023-03-02T12:46:56.876Z,17.25
2023-03-02T12:49:02.422Z,15.00
2023-03-02T12:51:03.399Z,17.88
2023-03-02T12:53:02.461Z,19.88
2023-03-02T12:55:06.822Z,15.23
2023-03-02T12:57:08.915Z,16.17
2023-03-02T12:59:07.576Z,17.50
2023-03-02T13:01:07.142Z,14.23
2023-03-02T13:03:07.199Z,14.77
2023-03-02T13:05:05.424Z,14.40
2023-03-02T13:07:00.537Z,16.98
2023-03-02T13:09:01.092Z,17.15
2023-03-02T13:10:58.023Z,15.02
2023-03-02T13:12:53.422Z,14.20
2023-03-02T13:14:57.259Z,18.13
2023-03-02T13:17:04.979Z,12.75
2023-03-02T13:19:02.947Z,14.77
2023-03-02T13:20:58.766Z,14.98
2023-03-02T13:22:55.136Z,19.60
2023-03-02T13:24:54.023Z,18.88
2023-03-02T13:26:58.005Z,16.05
2023-03-02T13:29:04.295Z,13.77
2023-03-02T13:31:03.657Z,17.33
2023-03-02T13:33:08.350Z,12.73
2023-03-02T13:35:07.517Z,16.60
2023-03-02T13:37:03.390Z,15.55
2023-03-02T13:39:01.971Z,14.98
2023-03-02T13:40:58.605Z,15.45
2023-03-02T13:42:54.073Z,16.77
2023-03-02T13:44:49.435Z,13.20
2023-03-02T13:46:47.785Z,14.98
2023-03-02T13:48:43.086Z,15.38
2023-03-02T13:50:41.742Z,13.30
2023-03-02T13:52:37.192Z,15.93
2023-03-02T13:54:35.510Z,14.50
2023-03-02T13:56:34.800Z,14.93
2023-03-02T13:58:32.883Z,14.30
2023-03-02T14:00:33.801Z,14.18
2023-03-02T14:02:32.847Z,18.05
2023-03-02T14:04:28.003Z,16.98
2023-03-02T14:06:23.625Z,14.77
2023-03-02T14:08:18.596Z,17.13
2023-03-02T14:10:23.177Z,19.40
2023-03-02T14:12:25.709Z,18.90
2023-03-02T14:14:32.044Z,16.48
2023-03-02T14:16:41.861Z,19.98
2023-03-02T14:18:45.676Z,20.58
2023-03-02T14:20:40.829Z,19.80
2023-03-02T14:22:38.484Z,22.08
2023-03-02T14:24:33.511Z,21.80
2023-03-02T14:26:34.972Z,23.48
2023-03-02T14:28:35.329Z,21.42
2023-03-02T14:30:30.670Z,19.92
2023-03-02T14:32:25.887Z,23.83
2023-03-02T14:34:24.340Z,22.30
2023-03-02T14:36:30.404Z,18.63
2023-03-02T14:38:30.971Z,24.88
2023-03-02T14:40:32.347Z,25.48
2023-03-02T14:42:27.931Z,25.23
2023-03-02T14:44:23.005Z,34.03
2023-03-02T14:46:18.375Z,27.83
2023-03-02T14:48:14.632Z,26.73
2023-03-02T14:50:14.441Z,29.17
2023-03-02T14:52:16.265Z,35.80
2023-03-02T14:54:17.127Z,31.35
2023-03-02T14:56:14.836Z,31.85
2023-03-02T14:58:16.151Z,32.65
2023-03-02T15:00:17.857Z,31.67
2023-03-02T15:02:25.144Z,34.20
2023-03-02T15:04:22.225Z,34.30
2023-03-02T15:06:28.730Z,31.33
2023-03-02T15:08:28.752Z,35.75
2023-03-02T15:10:26.600Z,40.33
2023-03-02T15:12:31.074Z,41.83
2023-03-02T15:14:26.348Z,45.92
2023-03-02T15:16:22.144Z,47.85
2023-03-02T15:18:25.215Z,49.55
2023-03-02T15:20:22.277Z,57.95
2023-03-02T15:22:20.303Z,55.65
2023-03-02T15:24:16.528Z,49.72
2023-03-02T15:26:16.425Z,57.03
2023-03-02T15:28:13.223Z,48.50
2023-03-02T15:30:09.952Z,52.38
2023-03-02T15:32:05.581Z,51.22
2023-03-02T15:34:01.169Z,54.53
2023-03-02T15:35:56.967Z,55.80
2023-03-02T15:38:02.533Z,60.47
2023-03-02T15:39:58.581Z,61.92
2023-03-02T15:41:54.436Z,64.45
2023-03-02T15:43:55.348Z,74.88
2023-03-02T15:45:50.866Z,66.60
2023-03-02T15:47:46.438Z,64.72
2023-03-02T15:49:41.928Z,70.25
2023-03-02T15:51:39.498Z,66.22
2023-03-02T15:53:42.957Z,67.10
2023-03-02T15:55:46.410Z,69.15
2023-03-02T15:57:44.352Z,71.40
2023-03-02T15:59:40.315Z,78.40
2023-03-02T16:01:35.530Z,68.40
2023-03-02T16:03:31.594Z,68.95
2023-03-02T16:05:26.986Z,72.53
2023-03-02T16:07:22.615Z,77.43
2023-03-02T16:09:23.961Z,71.83
2023-03-02T16:11:28.490Z,83.67
2023-03-02T16:13:23.872Z,72.63
2023-03-02T16:15:21.963Z,74.77
2023-03-02T16:17:20.734Z,76.57
2023-03-02T16:19:19.689Z,82.27
2023-03-02T16:21:15.864Z,84.30
2023-03-02T16:23:11.813Z,79.80
2023-03-02T16:25:10.446Z,81.90
2023-03-02T16:27:06.157Z,89.10
2023-03-02T16:29:02.236Z,95.70
2023-03-02T16:31:06.705Z,95.50
2023-03-02T16:33:06.860Z,92.10
2023-03-02T16:35:02.367Z,97.03
2023-03-02T16:36:57.525Z,99.20
2023-03-02T16:38:53.137Z,92.33
2023-03-02T16:41:00.262Z,103.13
2023-03-02T16:42:57.786Z,104.53
2023-03-02T16:44:55.407Z,105.23
2023-03-02T16:46:51.140Z,101.00
2023-03-02T16:48:47.167Z,106.80
2023-03-02T16:50:48.186Z,103.13
2023-03-02T16:52:43.338Z,105.20
2023-03-02T16:54:38.831Z,109.50
2023-03-02T16:56:36.804Z,104.83
2023-03-02T16:58:32.420Z,103.30
2023-03-02T17:00:28.476Z,105.97
2023-03-02T17:02:36.149Z,113.60
2023-03-02T17:04:46.207Z,116.93
2023-03-02T17:07:05.425Z,102.03
2023-03-02T17:09:03.998Z,121.53
2023-03-02T17:11:14.581Z,108.47
2023-03-02T17:13:15.689Z,102.07
2023-03-02T17:15:21.686Z,96.93
2023-03-02T17:17:17.757Z,369.93
2023-03-02T17:19:13.311Z,109.00
2023-03-02T17:21:10.981Z,116.80
2023-03-02T17:23:10.630Z,109.57
2023-03-02T17:25:07.805Z,114.07
2023-03-02T17:27:19.017Z,113.23
2023-03-02T17:29:22.184Z,116.70
2023-03-02T17:31:18.898Z,117.73
2023-03-02T17:33:14.403Z,107.37
2023-03-02T17:35:13.531Z,112.40
2023-03-02T17:37:08.659Z,117.10
2023-03-02T17:39:07.801Z,104.10
2023-03-02T17:41:05.377Z,116.57
2023-03-02T17:43:01.868Z,112.37
2023-03-02T17:44:59.839Z,105.47
2023-03-02T17:47:09.135Z,114.97
2023-03-02T17:49:11.688Z,107.30
2023-03-02T17:51:15.070Z,112.10
2023-03-02T17:53:10.523Z,106.10
2023-03-02T17:55:07.699Z,108.80
2023-03-02T17:57:05.770Z,110.37
2023-03-02T17:59:06.133Z,103.50
2023-03-02T18:01:04.902Z,105.87
2023-03-02T18:03:03.112Z,101.57
2023-03-02T18:04:59.077Z,101.23
2023-03-02T18:06:57.947Z,104.37
2023-03-02T18:08:56.144Z,111.47
2023-03-02T18:10:52.206Z,105.03
2023-03-02T18:12:54.275Z,105.20
2023-03-02T18:14:52.696Z,97.40
2023-03-02T18:16:53.070Z,94.33
2023-03-02T18:18:48.738Z,81.83
2023-03-02T18:20:46.953Z,78.27
2023-03-02T18:22:42.887Z,144.63
2023-03-02T18:24:37.896Z,331.53
2023-03-02T18:26:40.513Z,79.50
2023-03-02T18:28:35.908Z,77.77
2023-03-02T18:30:34.596Z,78.97
2023-03-02T18:32:32.610Z,77.83
2023-03-02T18:34:28.794Z,77.30
2023-03-02T18:36:29.409Z,74.27
2023-03-02T18:38:30.768Z,65.17
2023-03-02T18:40:26.985Z,63.20
2023-03-02T18:42:22.578Z,59.50
2023-03-02T18:44:17.863Z,59.63
2023-03-02T18:46:21.015Z,64.70
2023-03-02T18:48:18.700Z,68.40
2023-03-02T18:50:15.312Z,68.57
2023-03-02T18:52:12.180Z,75.27
2023-03-02T18:54:07.909Z,65.97
2023-03-02T18:56:03.325Z,72.00
2023-03-02T18:57:58.779Z,71.73
2023-03-02T18:59:54.024Z,64.77
2023-03-02T19:01:49.939Z,75.23
2023-03-02T19:03:49.044Z,75.67
2023-03-02T19:05:46.053Z,67.00
2023-03-02T19:07:41.179Z,73.97
2023-03-02T19:09:37.324Z,75.03
2023-03-02T19:11:32.309Z,75.80
2023-03-02T19:13:27.924Z,74.43
2023-03-02T19:15:24.954Z,73.60
2023-03-02T19:17:20.328Z,73.87
2023-03-02T19:19:17.996Z,75.03
2023-03-02T19:21:13.288Z,78.63
2023-03-02T19:23:08.246Z,79.67
2023-03-02T19:25:03.710Z,65.73
2023-03-02T19:26:58.769Z,67.97
2023-03-02T19:28:55.035Z,73.03
2023-03-02T19:30:50.515Z,75.23
2023-03-02T19:32:45.896Z,70.10
2023-03-02T19:34:44.401Z,70.27
2023-03-02T19:36:39.769Z,77.33
2023-03-02T19:38:38.027Z,70.93
2023-03-02T19:40:34.569Z,66.50
2023-03-02T19:42:34.746Z,72.97
2023-03-02T19:44:44.592Z,68.27
2023-03-02T19:46:39.592Z,69.03
2023-03-02T19:48:35.651Z,51.73
2023-03-02T19:50:33.357Z,37.47
2023-03-02T19:52:28.774Z,34.03
2023-03-02T19:54:23.802Z,32.00
2023-03-02T19:56:26.854Z,30.13
2023-03-02T19:58:29.212Z,29.37
2023-03-02T20:00:26.681Z,32.53
2023-03-02T20:02:22.829Z,55.07
2023-03-02T20:04:18.679Z,63.93
2023-03-02T20:06:16.861Z,37.40
2023-03-02T20:08:14.874Z,32.70
2023-03-02T20:10:18.506Z,32.07
2023-03-02T20:12:15.872Z,32.03
2023-03-02T20:14:12.078Z,33.17
2023-03-02T20:16:12.290Z,31.43
2023-03-02T20:18:08.284Z,35.57
2023-03-02T20:20:05.701Z,29.67
2023-03-02T20:22:03.803Z,31.43
2023-03-02T20:24:07.341Z,31.47
2023-03-02T20:26:02.556Z,29.40
2023-03-02T20:27:59.028Z,24.03
2023-03-02T20:29:56.414Z,23.77
2023-03-02T20:31:54.310Z,22.17
2023-03-02T20:33:52.009Z,22.40
2023-03-02T20:35:48.242Z,21.63
2023-03-02T20:37:47.520Z,21.33
2023-03-02T20:39:44.210Z,21.43
2023-03-02T20:41:39.383Z,19.53
2023-03-02T20:43:36.774Z,18.10
2023-03-02T20:45:32.318Z,20.87
2023-03-02T20:47:30.914Z,18.27
2023-03-02T20:49:26.997Z,17.80
2023-03-02T20:51:25.837Z,19.97
2023-03-02T20:53:23.806Z,18.40
2023-03-02T20:55:24.780Z,18.60
2023-03-02T20:57:22.516Z,17.70
2023-03-02T20:59:18.564Z,19.63
2023-03-02T21:01:21.759Z,19.87
2023-03-02T21:03:21.795Z,18.67
2023-03-02T21:05:16.825Z,20.67
2023-03-02T21:07:13.253Z,26.67
2023-03-02T21:09:14.762Z,25.90
2023-03-02T21:11:10.652Z,21.53
2023-03-02T21:13:39.439Z,23.43
2023-03-02T21:15:34.961Z,23.07
2023-03-02T21:17:30.770Z,29.43
2023-03-02T21:19:29.147Z,35.43
2023-03-02T21:21:40.636Z,38.63
2023-03-02T21:23:36.991Z,36.63
2023-03-02T21:25:35.246Z,36.87
2023-03-02T21:27:30.548Z,36.80
2023-03-02T21:29:27.161Z,34.43
2023-03-02T21:31:22.555Z,34.17
2023-03-02T21:33:17.518Z,39.40
2023-03-02T21:35:13.398Z,37.63
2023-03-02T21:37:08.371Z,41.93
2023-03-02T21:39:04.188Z,55.53
2023-03-02T21:41:01.800Z,61.50
2023-03-02T21:42:58.627Z,49.20
2023-03-02T21:44:53.588Z,52.80
2023-03-02T21:46:49.095Z,48.63
2023-03-02T21:48:44.132Z,50.97
2023-03-02T21:50:41.258Z,49.60
2023-03-02T21:52:36.303Z,46.37
2023-03-02T21:54:31.622Z,43.80
2023-03-02T21:56:29.384Z,39.43
2023-03-02T21:58:25.041Z,33.07
2023-03-02T22:00:23.450Z,28.63
2023-03-02T22:02:19.154Z,27.33
2023-03-02T22:04:14.476Z,29.07
2023-03-02T22:06:42.473Z,25.73
2023-03-02T22:08:49.788Z,26.60
2023-03-02T22:10:47.281Z,27.80
2023-03-02T22:12:56.087Z,24.23
2023-03-02T22:14:54.380Z,28.03
2023-03-02T22:16:49.740Z,26.90
2023-03-02T22:18:46.304Z,24.83
2023-03-02T22:20:43.687Z,21.57
2023-03-02T22:22:38.733Z,25.83
2023-03-02T22:24:35.550Z,21.00
2023-03-02T22:26:30.665Z,21.90
2023-03-02T22:28:30.590Z,22.10
2023-03-02T22:30:28.665Z,23.40
2023-03-02T22:32:25.832Z,21.47
2023-03-02T22:34:26.420Z,20.73
2023-03-02T22:36:25.002Z,19.13
2023-03-02T22:38:26.817Z,19.13
2023-03-02T22:40:31.396Z,18.57
2023-03-02T22:42:30.583Z,19.80
2023-03-02T22:44:28.421Z,22.33
2023-03-02T22:46:23.975Z,22.17
2023-03-02T22:48:21.034Z,22.73
2023-03-02T22:50:24.399Z,18.80
2023-03-02T22:52:23.370Z,21.47
2023-03-02T22:54:24.968Z,20.07
2023-03-02T22:56:30.898Z,22.73
2023-03-02T22:58:38.666Z,20.90
2023-03-02T23:00:40.286Z,22.17
2023-03-02T23:02:43.127Z,21.67
2023-03-02T23:04:39.723Z,24.43
2023-03-02T23:06:42.392Z,26.27
2023-03-02T23:08:37.516Z,26.63
2023-03-02T23:10:32.704Z,24.53
2023-03-02T23:12:30.689Z,27.60
2023-03-02T23:14:29.092Z,26.83
2023-03-02T23:16:30.457Z,25.20
2023-03-02T23:18:27.021Z,28.30
2023-03-02T23:20:23.937Z,23.50
2023-03-02T23:22:19.459Z,26.20
2023-03-02T23:24:15.217Z,28.07
2023-03-02T23:26:10.271Z,28.33
2023-03-02T23:28:09.081Z,28.43
2023-03-02T23:30:04.297Z,28.40
2023-03-02T23:32:02.394Z,33.87
2023-03-02T23:33:57.689Z,45.97
2023-03-02T23:35:53.083Z,38.10
2023-03-02T23:37:48.087Z,39.90
2023-03-02T23:39:45.988Z,43.07
2023-03-02T23:41:42.198Z,40.40
2023-03-02T23:43:38.570Z,40.83
2023-03-02T23:45:31.075Z,40.67
2023-03-02T23:47:29.085Z,46.07
2023-03-02T23:49:24.174Z,40.80
2023-03-02T23:51:19.546Z,40.80
2023-03-02T23:53:14.529Z,37.03
2023-03-02T23:55:11.736Z,36.13
2023-03-02T23:57:06.747Z,38.27
2023-03-02T23:59:02.213Z,37.70
